PAAQ METAR and TAF weather

Enter ICAO airport designator
Station Type Date Time Source
PAAQ METAR 2019/05/27 09:53 UTC NOAA

PAAQ 270953Z AUTO 13015G23KT 10SM CLR 11/02 A2977 RMK AO2 PK WND 14031/0915 SLP083 T01110022 TSNO


Station Type Date Time Source
PAAQ Decoded METAR 2019/05/27 09:53 UTC NOAA

PALMER MUNICIPAL AIRPORT, AK, United States (PAAQ) 61-36N 149-06W
May 27, 2019 - 05:53 AM EDT / 2019.05.27 0953 UTC
Wind: from the SE (130 degrees) at 17 MPH (15 KT) gusting to 26 MPH (23 KT):0
Visibility: 10 mile(s):0
Sky conditions: clear
Temperature: 52.0 F (11.1 C)
Dew Point: 36.0 F (2.2 C)
Relative Humidity: 54%
Pressure (altimeter): 29.77 in. Hg (1008 hPa)
ob: PAAQ 270953Z AUTO 13015G23KT 10SM CLR 11/02 A2977 RMK AO2 PK WND 14031/0915 SLP083 T01110022 TSNO
cycle: 10

Station Type Date Time Source
PAAQ TAF 2019/05/27 06:22 UTC NOAA

TAF PAAQ 270520Z 2706/2806 13020G30KT P6SM BKN100
FM271000 12010KT P6SM BKN120
FM272100 15015G25KT P6SM SCT080 BKN150
FM280500 14010KT P6SM BKN080

Example: see airport list